Airport View

Enter AWOS ICAO identifier for current METAR.

ex. KFNL

KOXB 100353Z AUTO 08009KT 10SM FEW010 BKN036 OVC050 26/24 A2991 RMK AO2 SLP127 T02560239

10 Jul 2020 04:38

Frequency: 119.025

Phone: 410-213-1530

Other Area AWOS: KSBY - KGED - KWAL - KWWD

TAF AMD KSBY 100104Z 1001/1024 08009KT P6SM VCSH BKN015 BKN035 FM100300 07009KT P6SM VCSH BKN015 FM100600 04012G19KT 3SM SHRA OVC008 FM101500 33011KT P6SM SHRA OVC015 FM101900 30012G19KT P6SM BKN020 FM102200 28009KT P6SM BKN120